Flight Track Log - Related Links

Times and Time Zones

All times are in EDT time to prevent confusion due to time zone crossing. See the F-HPJG flight status page for this flight to view local times or setup timezone preferences in your user account.

Time Position Orientation Groundspeed Altitude Reporting Facility
EDT Latitude Longitude Course Direction KTS MPH feet Rate Location/Type
Wed 05:49:18 PM 49.0020 2.5880 174° South 8 9  Level FlightAware
Wed 05:50:02 PM 49.0010 2.5880 180° South 1 1 15 Level FlightAware
Wed 05:50:28 PM 49.0000 2.5880 180° South 5 6 16 Level FlightAware
Wed 05:51:13 PM 49.0010 2.5910 63° Northeast 11 13 18 Level FlightAware
Wed 05:51:38 PM 49.0010 2.5930 90° East 8 9 20 Level FlightAware
Wed 05:52:07 PM 49.0010 2.5950 90° East 11 13 22 Level FlightAware
Wed 05:52:17 PM 49.0010 2.5960 90° East 11 13 25 Level FlightAware
Wed 05:52:53 PM 49.0010 2.5980 90° East 10 12 26 Level FlightAware
Wed 05:53:13 PM 49.0010 2.6000 90° East 9 10 31 Level FlightAware
Wed 05:54:17 PM 49.0000 2.6020 127° Southeast 10 12 34 Level FlightAware
Wed 05:54:42 PM 48.9990 2.6020 180° South 9 10 55 Level FlightAware
Wed 05:54:57 PM 48.9980 2.6010 213° Southwest 6 7 71 Level FlightAware
Wed 05:55:22 PM 48.9980 2.6000 270° West 30 35 86 Level FlightAware
Wed 05:56:07 PM 48.9960 2.5610 266° West 162 186 100 393 Climbing FlightAware
Wed 05:56:23 PM 48.9950 2.5440 265° West 162 186 400 1,350 Climbing FlightAware
Wed 05:56:47 PM 48.9940 2.5160 267° West 164 189 1,000 1,444 Climbing FlightAware
Wed 05:57:17 PM 48.9930 2.4810 268° West 167 192 1,700 1,400 Climbing FlightAware
Wed 05:57:47 PM 48.9920 2.4450 268° West 174 200 2,400 1,474 Climbing FlightAware
Wed 05:58:14 PM 48.9920 2.4100 270° West 188 216 3,100 1,350 Climbing FlightAware
Wed 05:58:27 PM 48.9910 2.3920 265° West 204 235 3,300 878 Climbing FlightAware
Wed 05:58:55 PM 48.9870 2.3480 262° West 247 284 3,700 1,091 Climbing FlightAware
Wed 05:59:11 PM 48.9790 2.3210 246° West 266 306 4,100 2,286 Climbing FlightAware
Wed 05:59:37 PM 48.9570 2.2890 224° Southwest 268 308 5,300 2,927 Climbing FlightAware
Wed 05:59:52 PM 48.9410 2.2690 219° Southwest 269 310 6,100 2,235 Climbing FlightAware
Wed 06:00:28 PM 48.9070 2.2290 218° Southwest 293 337 7,200 2,250 Climbing FlightAware
Wed 06:00:48 PM 48.8830 2.2070 211° Southwest 286 329 8,200 2,800 Climbing FlightAware
Wed 06:01:13 PM 48.8500 2.1970 191° South 303 349 9,300 2,182 Climbing FlightAware
Wed 06:01:54 PM 48.7880 2.2020 177° South 330 380 10,600 1,535 Climbing FlightAware
Wed 06:02:39 PM 48.7170 2.2110 175° South 368 423 11,500 1,256 Climbing FlightAware
Wed 06:03:20 PM 48.6420 2.2180 176° South 401 461 12,400 1,463 Climbing FlightAware
Wed 06:04:01 PM 48.5680 2.2230 177° South 420 483 13,500 1,906 Climbing FlightAware
Wed 06:04:45 PM 48.4810 2.2390 173° South 433 498 15,100 2,241 Climbing FlightAware
Wed 06:05:24 PM 48.4050 2.2600 170° South 437 503 16,600 2,093 Climbing FlightAware
Wed 06:06:11 PM 48.3080 2.2820 171° South 448 516 18,100 1,814 Climbing FlightAware
Wed 06:06:50 PM 48.2260 2.3020 171° South 459 528 19,200 1,829 Climbing FlightAware
Wed 06:07:33 PM 48.1360 2.3250 170° South 463 533 20,600 1,724 Climbing FlightAware
Wed 06:08:17 PM 48.0390 2.3490 171° South 477 549 21,700 1,537 Climbing FlightAware
Wed 06:08:55 PM 47.9550 2.3710 170° South 485 558 22,700 1,590 Climbing FlightAware
Wed 06:09:40 PM 47.8590 2.3950 170° South 490 564 23,900 1,416 Climbing FlightAware
Wed 06:10:24 PM 47.7550 2.4210 170° South 501 577 24,800 1,259 Climbing FlightAware
Wed 06:11:01 PM 47.6700 2.4420 171° South 508 585 25,600 1,259 Climbing FlightAware
Wed 06:11:45 PM 47.5670 2.4680 170° South 515 593 26,500 1,310 Climbing FlightAware
Wed 06:12:28 PM 47.4680 2.4920 171° South 517 595 27,500 1,333 Climbing FlightAware
Wed 06:13:06 PM 47.3780 2.5140 171° South 521 600 28,300 1,116 Climbing FlightAware
Wed 06:13:54 PM 47.2620 2.5430 170° South 526 605 29,100 1,091 Climbing FlightAware
Wed 06:14:34 PM 47.1670 2.5660 171° South 528 608 29,900 994 Climbing FlightAware
Wed 06:16:55 PM 46.8500 2.6430 156° South 536 617 32,100 1,055 Climbing FlightAware
Wed 06:17:00 PM 46.8752 2.7519 156° South  Level Estimated
Wed 06:17:36 PM 46.7230 2.6730 171° South 534 615 33,100  Level FlightAware
Wed 06:18:24 PM 46.6090 2.7010 170° South 527 606 34,200 1,116 Climbing FlightAware
Wed 06:19:02 PM 46.5180 2.7230 171° South 527 606 34,700 571 Climbing FlightAware
Wed 06:19:48 PM 46.4060 2.7490 171° South 526 605 35,000 209 Climbing FlightAware
Wed 06:20:28 PM 46.3060 2.7730 171° South 524 603 35,000  Level FlightAware
Wed 06:21:12 PM 46.2060 2.7970 171° South 523 602 35,000  Level FlightAware
Wed 06:21:52 PM 46.1120 2.8190 171° South 522 601 35,000  Level FlightAware
Wed 06:22:34 PM 46.0100 2.8430 171° South 521 600 35,000  Level FlightAware
Wed 06:23:16 PM 45.9120 2.8650 171° South 520 598 35,000  Level FlightAware
Wed 06:24:00 PM 45.8030 2.8910 171° South 520 598 35,000  Level FlightAware
Wed 06:24:36 PM 45.7170 2.9110 171° South 518 596 35,000  Level FlightAware
Wed 06:25:20 PM 45.6130 2.9350 171° South 516 594 35,000  Level FlightAware
Wed 06:26:00 PM 45.5180 2.9560 171° South 519 597 35,000  Level FlightAware
Wed 06:26:48 PM 45.4030 2.9830 171° South 519 597 35,000  Level FlightAware
Wed 06:27:28 PM 45.3120 3.0040 171° South 515 593 35,000  Level FlightAware
Wed 06:28:10 PM 45.2110 3.0260 171° South 516 594 35,000  Level FlightAware
Wed 06:28:52 PM 45.1120 3.0490 171° South 517 595 35,000  Level FlightAware
Wed 06:29:36 PM 45.0090 3.0720 171° South 516 594 35,000  Level FlightAware
Wed 06:30:16 PM 44.9140 3.0940 171° South 516 594 35,000  Level FlightAware
Wed 06:30:52 PM 44.8300 3.1120 171° South 514 592 35,000  Level FlightAware
Wed 06:31:50 PM 44.6920 3.1460 170° South 517 595 35,000  Level FlightAware
Wed 06:32:34 PM 44.5940 3.1900 162° South 527 606 35,000  Level FlightAware
Wed 06:33:32 PM 44.4690 3.2850 152° Southeast 534 615 35,000  Level FlightAware
Wed 06:34:15 PM 44.3760 3.3580 151° Southeast 534 615 35,000  Level FlightAware
Wed 06:34:58 PM 44.2830 3.4300 151° Southeast 533 613 35,000  Level FlightAware
Wed 06:35:38 PM 44.1950 3.4990 151° Southeast 533 613 35,000  Level FlightAware
Wed 06:36:22 PM 44.1020 3.5720 151° Southeast 533 613 35,000  Level FlightAware
Wed 06:37:02 PM 44.0180 3.6360 151° Southeast 531 611 35,000  Level FlightAware
Wed 06:37:40 PM 43.9350 3.7000 151° Southeast 529 609 35,000  Level FlightAware
Wed 06:38:26 PM 43.8320 3.7560 159° South 521 600 35,000  Level FlightAware
Wed 06:39:08 PM 43.7410 3.8040 159° South 523 602 35,000  Level FlightAware
Wed 06:39:52 PM 43.6410 3.8560 159° South 523 602 35,000  Level FlightAware
Wed 06:40:32 PM 43.5500 3.9030 159° South 522 601 35,000  Level FlightAware
Wed 06:41:16 PM 43.4500 3.9550 159° South 524 603 35,000  Level FlightAware
Wed 06:41:56 PM 43.3590 4.0020 159° South 526 605 35,000  Level FlightAware
Wed 06:42:38 PM 43.2630 4.0510 160° South 524 603 35,000  Level FlightAware
Wed 06:43:20 PM 43.1640 4.1020 159° South 527 606 35,000  Level FlightAware
Wed 06:44:02 PM 43.0690 4.1500 160° South 526 605 35,000  Level FlightAware
Wed 06:44:40 PM 42.9820 4.1950 159° South 524 603 35,000  Level FlightAware
Wed 06:45:36 PM 42.8540 4.2590 160° South 525 604 35,000  Level FlightAware
Wed 06:46:33 PM 42.7610 4.3060 160° South 528 608 35,000  Level FlightAware
Wed 06:47:18 PM 42.6630 4.3550 160° South 528 608 35,000  Level FlightAware
Wed 06:47:53 PM 42.5880 4.3930 160° South 527 606 35,000  Level FlightAware
Wed 06:48:43 PM 42.4660 4.4540 160° South 527 606 35,000  Level FlightAware
Wed 06:49:22 PM 42.3570 4.5090 160° South 525 604 35,000  Level FlightAware
Wed 06:50:00 PM 42.2780 4.5480 160° South 525 604 35,000  Level FlightAware
Wed 06:50:45 PM 42.1680 4.6020 160° South 524 603 35,000  Level FlightAware
Wed 06:51:26 PM 42.0750 4.6480 160° South 526 605 35,000  Level FlightAware
Wed 06:52:11 PM 41.9530 4.7080 160° South 525 604 35,000  Level FlightAware
Wed 06:52:55 PM 41.8510 4.7580 160° South 521 600 35,000  Level FlightAware
Wed 06:53:39 PM 41.7520 4.8060 160° South 520 598 35,000  Level FlightAware
Wed 06:54:19 PM 41.6660 4.8480 160° South 518 596 35,000  Level FlightAware
Wed 06:54:59 PM 41.5720 4.8930 160° South 517 595 35,000  Level FlightAware
Wed 06:55:38 PM 41.4860 4.9350 160° South 515 593 35,000  Level FlightAware
Wed 06:56:27 PM 41.3740 4.9890 160° South 517 595 35,000  Level FlightAware
Wed 06:57:07 PM 41.2840 5.0320 160° South 519 597 35,000  Level FlightAware
Wed 06:57:49 PM 41.1890 5.0770 160° South 521 600 35,000  Level FlightAware
Wed 06:58:31 PM 41.0930 5.1230 160° South 525 604 35,000  Level FlightAware
Wed 06:59:19 PM 41.0020 5.1670 160° South 525 604 35,000  Level FlightAware
Wed 07:00:09 PM 40.8690 5.2300 160° South 525 604 35,000  Level FlightAware
Wed 07:00:50 PM 40.7790 5.2720 161° South 527 606 35,000  Level FlightAware
Wed 07:01:54 PM 40.6500 5.3320 161° South 528 608 35,000  Level FlightAware
Wed 07:03:14 PM 40.4910 5.4080 160° South 528 608 35,000  Level FlightAware
Wed 07:03:54 PM 40.3640 5.4670 161° South 527 606 35,000  Level FlightAware
Wed 07:04:30 PM 40.2940 5.5010 160° South 527 606 35,000  Level FlightAware
Wed 07:05:18 PM 40.2000 5.5450 160° South 527 606 35,000  Level FlightAware
Wed 07:06:01 PM 40.0640 5.6050 161° South 529 609 35,000  Level FlightAware
Wed 07:06:41 PM 39.9790 5.6450 160° South 529 609 35,000  Level FlightAware
Wed 07:07:21 PM 39.8780 5.6910 161° South 528 608 35,000  Level FlightAware
Wed 07:08:04 PM 39.7780 5.7370 161° South 528 608 35,000  Level FlightAware
Wed 07:09:26 PM 39.5880 5.8190 162° South 522 601 35,000  Level FlightAware
Wed 07:10:06 PM 39.4950 5.8410 170° South 512 589 35,000  Level FlightAware
Wed 07:10:46 PM 39.4040 5.8660 168° South 511 588 35,000  Level FlightAware
Wed 07:11:36 PM 39.2850 5.8960 169° South 522 601 35,000  Level FlightAware
Wed 07:12:16 PM 39.1860 5.9220 168° South 522 601 35,000  Level FlightAware
Wed 07:13:01 PM 39.0810 5.9490 169° South 521 600 35,000  Level FlightAware
Wed 07:13:41 PM 38.9860 5.9730 169° South 512 589 35,000  Level FlightAware
Wed 07:14:21 PM 38.8910 5.9970 169° South 511 588 35,000  Level FlightAware
Wed 07:15:17 PM 38.7830 6.0260 168° South 512 589 35,000  Level FlightAware
Wed 07:15:56 PM 38.6740 6.0520 169° South 523 602 35,000  Level FlightAware
Wed 07:16:42 PM 38.5590 6.0820 168° South 523 602 35,000  Level FlightAware
Wed 07:17:21 PM 38.4800 6.1030 168° South 523 602 35,000  Level FlightAware
Wed 07:18:24 PM 38.3530 6.1370 168° South 523 602 35,000  Level FlightAware
Wed 07:19:01 PM 38.2790 6.1570 168° South 523 602 35,000  Level FlightAware
Wed 07:19:37 PM 38.2070 6.1770 168° South 523 602 35,000  Level FlightAware
Wed 07:20:25 PM 38.1100 6.2030 168° South 523 602 35,000  Level FlightAware
Wed 07:21:25 PM 37.9890 6.2360 168° South 523 602 35,000  Level FlightAware
Wed 07:22:01 PM 37.9170 6.2550 168° South 523 602 35,000  Level FlightAware
Wed 07:22:49 PM 37.8200 6.2810 168° South 523 602 35,000  Level FlightAware
Wed 07:23:26 PM 37.7460 6.3010 168° South 523 602 35,000  Level FlightAware
Wed 07:24:12 PM 37.6530 6.3260 168° South 523 602 35,000  Level FlightAware
Wed 07:24:48 PM 37.5810 6.3450 168° South 523 602 35,000  Level FlightAware
Wed 07:25:36 PM 37.4840 6.3710 168° South 523 602 35,000  Level FlightAware
Wed 07:26:13 PM 37.4100 6.3910 168° South 523 602 35,000 Level FlightAware
Wed 07:28:00 PM 37.1945 6.4966 159° South  Level Estimated
Wed 07:29:00 PM 37.0737 6.5555 159° South  Level Estimated
Wed 07:30:00 PM 36.9528 6.6142 159° South  Level Estimated
Wed 07:31:00 PM 36.8319 6.6728 159° South  Level Estimated
Wed 07:32:00 PM 36.7109 6.7312 159° South  Level Estimated
Wed 07:33:00 PM 36.5900 6.7893 159° South  Level Estimated
Wed 07:34:00 PM 36.4690 6.8473 159° South  Level Estimated
Wed 07:35:00 PM 36.3479 6.9051 159° South  Level Estimated
Wed 07:36:00 PM 36.2269 6.9628 159° South  Level Estimated
Wed 07:37:00 PM 36.1058 7.0202 159° South  Level Estimated
Wed 07:38:00 PM 35.9847 7.0775 159° South  Level Estimated
Wed 07:39:00 PM 35.8636 7.1347 159° South  Level Estimated
Wed 07:40:00 PM 35.7424 7.1916 159° South  Level Estimated
Wed 07:41:00 PM 35.6212 7.2484 159° South  Level Estimated
Wed 07:42:00 PM 35.5000 7.3049 159° South  Level Estimated
Wed 07:43:00 PM 35.3787 7.3614 159° South  Level Estimated
Wed 07:44:00 PM 35.2575 7.4176 159° South  Level Estimated
Wed 07:45:00 PM 35.1362 7.4737 159° South  Level Estimated
Wed 07:46:00 PM 35.0149 7.5296 159° South  Level Estimated
Wed 07:47:00 PM 34.8929 7.5856 159° South  Level Estimated
Wed 07:48:00 PM 34.7709 7.6415 159° South  Level Estimated
Wed 07:49:00 PM 34.6489 7.6972 159° South  Level Estimated
Wed 07:50:00 PM 34.5269 7.7527 159° South  Level Estimated
Wed 07:51:00 PM 34.4049 7.8081 159° South  Level Estimated
Wed 07:52:00 PM 34.2828 7.8633 160° South  Level Estimated
Wed 07:53:00 PM 34.1607 7.9184 160° South  Level Estimated
Wed 07:54:00 PM 34.0385 7.9732 160° South  Level Estimated
Wed 07:55:00 PM 33.9164 8.0280 160° South  Level Estimated
Wed 07:56:00 PM 33.7942 8.0826 160° South  Level Estimated
Wed 07:57:00 PM 33.6720 8.1370 160° South  Level Estimated
Wed 07:58:00 PM 33.5498 8.1912 160° South  Level Estimated
Wed 07:59:00 PM 33.4275 8.2454 160° South  Level Estimated
Wed 08:00:00 PM 33.3053 8.2993 160° South  Level Estimated
Wed 08:01:00 PM 33.1830 8.3531 160° South  Level Estimated
Wed 08:02:00 PM 33.0607 8.4068 160° South  Level Estimated
Wed 08:03:00 PM 32.9383 8.4603 160° South  Level Estimated
Wed 08:04:00 PM 32.8160 8.5137 160° South  Level Estimated
Wed 08:05:00 PM 32.6936 8.5669 160° South  Level Estimated
Wed 08:06:00 PM 32.5712 8.6200 160° South  Level Estimated
Wed 08:07:00 PM 32.4487 8.6729 160° South  Level Estimated
Wed 08:08:00 PM 32.3263 8.7257 160° South  Level Estimated
Wed 08:09:00 PM 32.2038 8.7783 160° South  Level Estimated
Wed 08:10:00 PM 32.0813 8.8308 160° South  Level Estimated
Wed 08:11:00 PM 31.9588 8.8832 160° South  Level Estimated
Wed 08:12:00 PM 31.8363 8.9354 160° South  Level Estimated
Wed 08:13:00 PM 31.7137 8.9875 160° South  Level Estimated
Wed 08:14:00 PM 31.5911 9.0394 160° South  Level Estimated
Wed 08:15:00 PM 31.4685 9.0912 160° South  Level Estimated
Wed 08:16:00 PM 31.3459 9.1429 160° South  Level Estimated
Wed 08:17:00 PM 31.2233 9.1944 160° South  Level Estimated
Wed 08:18:00 PM 31.1006 9.2458 160° South  Level Estimated
Wed 08:19:00 PM 30.9779 9.2971 160° South  Level Estimated
Wed 08:20:00 PM 30.8552 9.3482 160° South  Level Estimated
Wed 08:21:00 PM 30.7325 9.3992 160° South  Level Estimated
Wed 08:22:00 PM 30.6098 9.4501 160° South  Level Estimated
Wed 08:23:00 PM 30.4870 9.5009 160° South  Level Estimated
Wed 08:24:00 PM 30.3642 9.5515 160° South  Level Estimated
Wed 08:25:00 PM 30.2414 9.6020 160° South  Level Estimated
Wed 08:26:00 PM 30.1186 9.6524 160° South  Level Estimated
Wed 08:27:00 PM 29.9958 9.7026 160° South  Level Estimated
Wed 08:28:00 PM 29.8729 9.7527 161° South  Level Estimated
Wed 08:29:00 PM 29.7500 9.8027 161° South  Level Estimated
Wed 08:30:00 PM 29.6271 9.8526 161° South  Level Estimated
Wed 08:31:00 PM 29.5042 9.9023 161° South  Level Estimated
Wed 08:32:00 PM 29.3813 9.9520 161° South  Level Estimated
Wed 08:33:00 PM 29.2583 10.0015 161° South  Level Estimated
Wed 08:34:00 PM 29.1354 10.0508 161° South  Level Estimated
Wed 08:35:00 PM 29.0124 10.1001 161° South  Level Estimated
Wed 08:36:00 PM 28.8894 10.1493 161° South  Level Estimated
Wed 08:37:00 PM 28.7663 10.1983 161° South  Level Estimated
Wed 08:38:00 PM 28.6433 10.2472 161° South  Level Estimated
Wed 08:39:00 PM 28.5202 10.2961 161° South  Level Estimated
Wed 08:40:00 PM 28.3972 10.3448 161° South  Level Estimated
Wed 08:41:00 PM 28.2741 10.3933 161° South  Level Estimated
Wed 08:42:00 PM 28.1509 10.4418 161° South  Level Estimated
Wed 08:43:00 PM 28.0278 10.4902 161° South  Level Estimated
Wed 08:44:00 PM 27.9047 10.5384 161° South  Level Estimated
Wed 08:45:00 PM 27.7815 10.5865 161° South  Level Estimated
Wed 08:46:00 PM 27.6583 10.6346 161° South  Level Estimated
Wed 08:47:00 PM 27.5351 10.6825 161° South  Level Estimated
Wed 08:48:00 PM 27.4119 10.7303 161° South  Level Estimated
Wed 08:49:00 PM 27.2887 10.7780 161° South  Level Estimated
Wed 08:50:00 PM 27.1654 10.8256 161° South  Level Estimated
Wed 08:51:00 PM 27.0422 10.8731 161° South  Level Estimated
Wed 08:52:00 PM 26.9189 10.9205 161° South  Level Estimated
Wed 08:53:00 PM 26.7956 10.9678 161° South  Level Estimated
Wed 08:54:00 PM 26.6723 11.0150 161° South  Level Estimated
Wed 08:55:00 PM 26.5490 11.0621 161° South  Level Estimated
Wed 08:56:00 PM 26.4256 11.1091 161° South  Level Estimated
Wed 08:57:00 PM 26.3023 11.1559 161° South  Level Estimated
Wed 08:58:00 PM 26.1789 11.2027 161° South  Level Estimated
Wed 08:59:00 PM 26.0555 11.2494 161° South  Level Estimated
Wed 09:00:00 PM 25.9321 11.2960 161° South  Level Estimated
Wed 09:01:00 PM 25.8087 11.3425 161° South  Level Estimated
Wed 09:02:00 PM 25.6853 11.3889 161° South  Level Estimated
Wed 09:03:00 PM 25.5619 11.4352 161° South  Level Estimated
Wed 09:04:00 PM 25.4384 11.4814 161° South  Level Estimated
Wed 09:05:00 PM 25.3149 11.5275 161° South  Level Estimated
Wed 09:06:00 PM 25.1915 11.5735 161° South  Level Estimated
Wed 09:07:00 PM 25.0679 11.6194 161° South  Level Estimated
Wed 09:08:00 PM 24.9444 11.6652 161° South  Level Estimated
Wed 09:09:00 PM 24.8209 11.7110 161° South  Level Estimated
Wed 09:10:00 PM 24.6974 11.7566 161° South  Level Estimated
Wed 09:11:00 PM 24.5738 11.8022 161° South  Level Estimated
Wed 09:12:00 PM 24.4502 11.8476 161° South  Level Estimated
Wed 09:13:00 PM 24.3267 11.8930 162° South  Level Estimated
Wed 09:14:00 PM 24.2031 11.9383 162° South  Level Estimated
Wed 09:15:00 PM 24.0794 11.9835 162° South  Level Estimated
Wed 09:16:00 PM 23.9558 12.0286 162° South  Level Estimated
Wed 09:17:00 PM 23.8322 12.0736 162° South  Level Estimated
Wed 09:18:00 PM 23.7085 12.1186 162° South  Level Estimated
Wed 09:19:00 PM 23.5849 12.1634 162° South  Level Estimated
Wed 09:20:00 PM 23.4612 12.2082 162° South  Level Estimated
Wed 09:21:00 PM 23.3375 12.2529 162° South  Level Estimated
Wed 09:22:00 PM 23.2138 12.2975 162° South  Level Estimated
Wed 09:23:00 PM 23.0901 12.3420 162° South  Level Estimated
Wed 09:24:00 PM 22.9664 12.3864 162° South  Level Estimated
Wed 09:25:00 PM 22.8426 12.4308 162° South  Level Estimated
Wed 09:26:00 PM 22.7189 12.4751 162° South  Level Estimated
Wed 09:27:00 PM 22.5951 12.5193 162° South  Level Estimated
Wed 09:28:00 PM 22.4713 12.5634 162° South  Level Estimated
Wed 09:29:00 PM 22.3475 12.6074 162° South  Level Estimated
Wed 09:30:00 PM 22.2237 12.6514 162° South  Level Estimated
Wed 09:31:00 PM 22.0999 12.6953 162° South  Level Estimated
Wed 09:32:00 PM 21.9761 12.7391 162° South  Level Estimated
Wed 09:33:00 PM 21.8523 12.7828 162° South  Level Estimated
Wed 09:34:00 PM 21.7284 12.8265 162° South  Level Estimated
Wed 09:35:00 PM 21.6046 12.8701 162° South  Level Estimated
Wed 09:36:00 PM 21.4807 12.9136 162° South  Level Estimated
Wed 09:37:00 PM 21.3568 12.9570 162° South  Level Estimated
Wed 09:38:00 PM 21.2329 13.0003 162° South  Level Estimated
Wed 09:39:00 PM 21.1090 13.0436 162° South  Level Estimated
Wed 09:40:00 PM 20.9851 13.0868 162° South  Level Estimated
Wed 09:41:00 PM 20.8612 13.1300 162° South  Level Estimated
Wed 09:42:00 PM 20.7373 13.1730 162° South  Level Estimated
Wed 09:43:00 PM 20.6133 13.2160 162° South  Level Estimated
Wed 09:44:00 PM 20.4893 13.2590 162° South  Level Estimated
Wed 09:45:00 PM 20.3654 13.3018 162° South  Level Estimated
Wed 09:46:00 PM 20.2414 13.3446 162° South  Level Estimated
Wed 09:47:00 PM 20.1174 13.3873 162° South  Level Estimated
Wed 09:48:00 PM 19.9934 13.4300 162° South  Level Estimated
Wed 09:49:00 PM 19.8694 13.4726 162° South  Level Estimated
Wed 09:50:00 PM 19.7454 13.5151 162° South  Level Estimated
Wed 09:51:00 PM 19.6213 13.5576 162° South  Level Estimated
Wed 09:52:00 PM 19.4973 13.5999 162° South  Level Estimated
Wed 09:53:00 PM 19.3733 13.6423 162° South  Level Estimated
Wed 09:54:00 PM 19.2492 13.6845 162° South  Level Estimated
Wed 09:55:00 PM 19.1251 13.7267 162° South  Level Estimated
Wed 09:56:00 PM 19.0011 13.7689 162° South  Level Estimated
Wed 09:57:00 PM 18.8770 13.8109 162° South  Level Estimated
Wed 09:58:00 PM 18.7529 13.8529 162° South  Level Estimated
Wed 09:59:00 PM 18.6287 13.8949 162° South  Level Estimated
Wed 10:00:00 PM 18.5046 13.9368 162° South  Level Estimated
Wed 10:01:00 PM 18.3805 13.9786 162° South  Level Estimated
Wed 10:02:00 PM 18.2564 14.0203 162° South  Level Estimated
Wed 10:03:00 PM 18.1322 14.0620 162° South  Level Estimated
Wed 10:04:00 PM 18.0081 14.1037 162° South  Level Estimated
Wed 10:05:00 PM 17.8839 14.1453 162° South  Level Estimated
Wed 10:06:00 PM 17.7598 14.1868 162° South  Level Estimated
Wed 10:07:00 PM 17.6356 14.2283 162° South  Level Estimated
Wed 10:08:00 PM 17.5114 14.2697 162° South  Level Estimated
Wed 10:09:00 PM 17.3872 14.3110 162° South  Level Estimated
Wed 10:10:00 PM 17.2630 14.3523 162° South  Level Estimated
Wed 10:11:00 PM 17.1388 14.3936 162° South  Level Estimated
Wed 10:12:00 PM 17.0146 14.4348 162° South  Level Estimated
Wed 10:13:00 PM 16.8904 14.4759 162° South  Level Estimated
Wed 10:14:00 PM 16.7661 14.5170 162° South  Level Estimated
Wed 10:15:00 PM 16.6419 14.5580 162° South  Level Estimated
Wed 10:16:00 PM 16.5176 14.5990 162° South  Level Estimated
Wed 10:17:00 PM 16.3934 14.6399 162° South  Level Estimated
Wed 10:18:00 PM 16.2691 14.6808 162° South  Level Estimated
Wed 10:19:00 PM 16.1448 14.7216 162° South  Level Estimated
Wed 10:20:00 PM 16.0205 14.7624 163° South  Level Estimated
Wed 10:21:00 PM 15.8962 14.8031 163° South  Level Estimated
Wed 10:22:00 PM 15.7719 14.8438 163° South  Level Estimated
Wed 10:23:00 PM 15.6476 14.8844 163° South  Level Estimated
Wed 10:24:00 PM 15.5233 14.9250 163° South  Level Estimated
Wed 10:25:00 PM 15.3990 14.9655 163° South  Level Estimated
Wed 10:26:00 PM 15.2747 15.0059 163° South  Level Estimated
Wed 10:27:00 PM 15.1503 15.0464 163° South  Level Estimated
Wed 10:28:00 PM 15.0260 15.0867 163° South  Level Estimated
Wed 10:29:00 PM 14.9016 15.1271 163° South  Level Estimated
Wed 10:30:00 PM 14.7773 15.1673 163° South  Level Estimated
Wed 10:31:00 PM 14.6529 15.2076 163° South  Level Estimated
Wed 10:32:00 PM 14.5286 15.2478 163° South  Level Estimated
Wed 10:33:00 PM 14.4042 15.2879 163° South  Level Estimated
Wed 10:34:00 PM 14.2798 15.3280 163° South  Level Estimated
Wed 10:35:00 PM 14.1554 15.3681 163° South  Level Estimated
Wed 10:36:00 PM 14.0310 15.4081 163° South  Level Estimated
Wed 10:37:00 PM 13.9066 15.4480 163° South  Level Estimated
Wed 10:38:00 PM 13.7822 15.4880 163° South  Level Estimated
Wed 10:39:00 PM 13.6578 15.5278 163° South  Level Estimated
Wed 10:40:00 PM 13.5333 15.5677 163° South  Level Estimated
Wed 10:41:00 PM 13.4089 15.6075 163° South  Level Estimated
Wed 10:42:00 PM 13.2845 15.6472 163° South  Level Estimated
Wed 10:43:00 PM 13.1600 15.6870 163° South  Level Estimated
Wed 10:44:00 PM 13.0356 15.7266 163° South  Level Estimated
Wed 10:45:00 PM 12.9111 15.7663 163° South  Level Estimated
Wed 10:46:00 PM 12.7866 15.8059 163° South  Level Estimated
Wed 10:47:00 PM 12.6622 15.8454 163° South  Level Estimated
Wed 10:48:00 PM 12.5377 15.8850 163° South  Level Estimated
Wed 10:49:00 PM 12.4132 15.9244 163° South  Level Estimated
Wed 10:50:00 PM 12.2887 15.9639 163° South  Level Estimated
Wed 10:51:00 PM 12.1643 16.0033 163° South  Level Estimated
Wed 10:52:00 PM 12.0398 16.0427 163° South  Level Estimated
Wed 10:53:00 PM 11.9153 16.0820 163° South  Level Estimated
Wed 10:54:00 PM 11.7907 16.1213 163° South  Level Estimated
Wed 10:55:00 PM 11.6662 16.1605 163° South  Level Estimated
Wed 10:56:00 PM 11.5417 16.1998 163° South  Level Estimated
Wed 10:57:00 PM 11.4172 16.2390 163° South  Level Estimated
Wed 10:58:00 PM 11.2927 16.2781 163° South  Level Estimated
Wed 10:59:00 PM 11.1681 16.3172 163° South  Level Estimated
Wed 11:00:00 PM 11.0436 16.3563 163° South  Level Estimated
Wed 11:01:00 PM 10.9191 16.3954 163° South  Level Estimated
Wed 11:02:00 PM 10.7945 16.4344 163° South  Level Estimated
Wed 11:03:00 PM 10.6700 16.4734 163° South  Level Estimated
Wed 11:04:00 PM 10.5454 16.5124 163° South  Level Estimated
Wed 11:05:00 PM 10.4208 16.5513 163° South  Level Estimated
Wed 11:06:00 PM 10.2963 16.5902 163° South  Level Estimated
Wed 11:07:00 PM 10.1717 16.6291 163° South  Level Estimated
Wed 11:08:00 PM 10.0471 16.6679 163° South  Level Estimated
Wed 11:09:00 PM 9.9225 16.7067 163° South  Level Estimated
Wed 11:10:00 PM 9.7979 16.7455 163° South  Level Estimated
Wed 11:11:00 PM 9.6734 16.7842 163° South  Level Estimated
Wed 11:12:00 PM 9.5488 16.8229 163° South  Level Estimated
Wed 11:13:00 PM 9.4242 16.8616 163° South  Level Estimated
Wed 11:14:00 PM 9.2996 16.9003 163° South  Level Estimated
Wed 11:15:00 PM 9.1750 16.9389 163° South  Level Estimated
Wed 11:16:00 PM 9.0504 16.9775 163° South  Level Estimated
Wed 11:17:00 PM 8.9257 17.0161 163° South  Level Estimated
Wed 11:18:00 PM 8.8011 17.0547 163° South  Level Estimated
Wed 11:19:00 PM 8.6765 17.0932 163° South  Level Estimated
Wed 11:20:00 PM 8.5519 17.1317 163° South  Level Estimated
Wed 11:21:00 PM 8.4272 17.1702 163° South  Level Estimated
Wed 11:22:00 PM 8.3026 17.2086 163° South  Level Estimated
Wed 11:23:00 PM 8.1780 17.2470 163° South  Level Estimated
Wed 11:24:00 PM 8.0533 17.2854 163° South  Level Estimated
Wed 11:25:00 PM 7.9287 17.3238 163° South  Level Estimated
Wed 11:26:00 PM 7.8040 17.3622 163° South  Level Estimated
Wed 11:27:00 PM 7.6794 17.4005 163° South  Level Estimated
Wed 11:28:00 PM 7.5547 17.4388 163° South  Level Estimated
Wed 11:29:00 PM 7.4301 17.4771 163° South  Level Estimated
Wed 11:30:00 PM 7.3054 17.5154 163° South  Level Estimated
Wed 11:31:00 PM 7.1807 17.5536 163° South  Level Estimated
Wed 11:32:00 PM 7.0561 17.5919 163° South  Level Estimated
Wed 11:33:00 PM 6.9314 17.6301 163° South  Level Estimated
Wed 11:34:00 PM 6.8067 17.6682 163° South  Level Estimated
Wed 11:35:00 PM 6.6820 17.7064 163° South  Level Estimated
Wed 11:36:00 PM 6.5574 17.7445 163° South  Level Estimated
Wed 11:37:00 PM 6.4327 17.7827 163° South  Level Estimated
Wed 11:38:00 PM 6.3080 17.8208 163° South  Level Estimated
Wed 11:39:00 PM 6.1833 17.8589 163° South  Level Estimated
Wed 11:40:00 PM 6.0586 17.8969 163° South  Level Estimated
Wed 11:41:00 PM 5.9339 17.9350 163° South  Level Estimated
Wed 11:42:00 PM 5.8092 17.9730 163° South  Level Estimated
Wed 11:43:00 PM 5.6845 18.0110 163° South  Level Estimated
Wed 11:44:00 PM 5.5598 18.0490 163° South  Level Estimated
Wed 11:45:00 PM 5.4351 18.0870 163° South  Level Estimated
Wed 11:46:00 PM 5.3104 18.1250 163° South  Level Estimated
Wed 11:47:00 PM 5.1857 18.1630 163° South  Level Estimated
Wed 11:48:00 PM 5.0610 18.2009 163° South  Level Estimated
Wed 11:49:00 PM 4.9363 18.2388 163° South  Level Estimated
Wed 11:50:00 PM 4.8116 18.2768 163° South  Level Estimated
Wed 11:51:00 PM 4.6868 18.3146 163° South  Level Estimated
Wed 11:52:00 PM 4.5621 18.3525 163° South  Level Estimated
Wed 11:53:00 PM 4.4374 18.3904 163° South  Level Estimated
Wed 11:54:00 PM 4.3127 18.4283 163° South  Level Estimated
Wed 11:55:00 PM 4.1880 18.4661 163° South  Level Estimated
Wed 11:56:00 PM 4.0632 18.5039 163° South  Level Estimated
Wed 11:57:00 PM 3.9385 18.5418 163° South  Level Estimated
Wed 11:58:00 PM 3.8138 18.5796 163° South  Level Estimated
Wed 11:59:00 PM 3.6890 18.6174 163° South  Level Estimated
Thu 12:00:00 AM 3.5643 18.6552 163° South  Level Estimated
Thu 12:01:00 AM 3.4396 18.6929 163° South  Level Estimated
Thu 12:02:00 AM 3.3148 18.7307 163° South  Level Estimated
Thu 12:03:00 AM 3.1901 18.7685 163° South  Level Estimated
Thu 12:04:00 AM 3.0653 18.8062 163° South  Level Estimated
Thu 12:05:00 AM 2.9406 18.8440 163° South  Level Estimated
Thu 12:06:00 AM 2.8159 18.8817 163° South  Level Estimated
Thu 12:07:00 AM 2.6911 18.9194 163° South  Level Estimated
Thu 12:08:00 AM 2.5664 18.9571 163° South  Level Estimated
Thu 12:09:00 AM 2.4416 18.9949 163° South  Level Estimated
Thu 12:10:00 AM 2.3169 19.0326 163° South  Level Estimated
Thu 12:11:00 AM 2.1921 19.0702 163° South  Level Estimated
Thu 12:12:00 AM 2.0674 19.1079 163° South  Level Estimated
Thu 12:13:00 AM 1.9426 19.1456 163° South  Level Estimated
Thu 12:14:00 AM 1.8179 19.1833 163° South  Level Estimated
Thu 12:15:00 AM 1.6931 19.2210 163° South  Level Estimated
Thu 12:16:00 AM 1.5684 19.2586 163° South  Level Estimated
Thu 12:17:00 AM 1.4436 19.2963 163° South  Level Estimated
Thu 12:18:00 AM 1.3189 19.3340 163° South  Level Estimated
Thu 12:19:00 AM 1.1941 19.3716 163° South  Level Estimated
Thu 12:20:00 AM 1.0694 19.4093 163° South  Level Estimated
Thu 12:21:00 AM 0.9446 19.4469 163° South  Level Estimated
Thu 12:22:00 AM 0.8199 19.4846 163° South  Level Estimated
Thu 12:23:00 AM 0.6951 19.5222 163° South  Level Estimated
Thu 12:24:00 AM 0.5703 19.5599 163° South  Level Estimated
Thu 12:25:00 AM 0.4456 19.5975 163° South  Level Estimated
Thu 12:26:00 AM 0.3208 19.6351 163° South  Level Estimated
Thu 12:27:00 AM 0.1961 19.6728 163° South  Level Estimated
Thu 12:28:00 AM 0.0713 19.7104 163° South  Level Estimated
Thu 12:29:00 AM -0.0535 19.7481 163° South  Level Estimated
Thu 12:30:00 AM -0.1782 19.7857 163° South  Level Estimated
Thu 12:31:00 AM -0.3030 19.8233 163° South  Level Estimated
Thu 12:32:00 AM -0.4277 19.8610 163° South  Level Estimated
Thu 12:33:00 AM -0.5525 19.8986 163° South  Level Estimated
Thu 12:34:00 AM -0.6773 19.9363 163° South  Level Estimated
Thu 12:35:00 AM -0.8020 19.9739 163° South  Level Estimated
Thu 12:36:00 AM -0.9268 20.0115 163° South  Level Estimated
Thu 12:37:00 AM -1.0516 20.0492 163° South  Level Estimated
Thu 12:38:00 AM -1.1763 20.0868 163° South  Level Estimated
Thu 12:39:00 AM -1.3010 20.1245 163° South  Level Estimated
Thu 12:40:00 AM -1.4258 20.1622 163° South  Level Estimated
Thu 12:41:00 AM -1.5505 20.1998 163° South  Level Estimated
Thu 12:42:00 AM -1.6753 20.2375 163° South  Level Estimated
Thu 12:43:00 AM -1.8001 20.2752 163° South  Level Estimated
Thu 12:44:00 AM -1.9248 20.3128 163° South  Level Estimated
Thu 12:45:00 AM -2.0496 20.3505 163° South  Level Estimated
Thu 12:46:00 AM -2.1743 20.3882 163° South  Level Estimated
Thu 12:47:00 AM -2.2991 20.4259 163° South  Level Estimated
Thu 12:48:00 AM -2.4238 20.4636 163° South  Level Estimated
Thu 12:49:00 AM -2.5485 20.5013 163° South  Level Estimated
Thu 12:50:00 AM -2.6733 20.5390 163° South  Level Estimated
Thu 12:51:00 AM -2.7980 20.5768 163° South  Level Estimated
Thu 12:52:00 AM -2.9228 20.6145 163° South  Level Estimated
Thu 12:53:00 AM -3.0475 20.6522 163° South  Level Estimated
Thu 12:54:00 AM -3.1723 20.6900 163° South  Level Estimated
Thu 12:55:00 AM -3.2970 20.7277 163° South  Level Estimated
Thu 12:56:00 AM -3.4217 20.7655 163° South  Level Estimated
Thu 12:57:00 AM -3.5465 20.8033 163° South  Level Estimated
Thu 12:58:00 AM -3.6712 20.8411 163° South  Level Estimated
Thu 12:59:00 AM -3.7959 20.8789 163° South  Level Estimated
Thu 01:00:00 AM -3.9207 20.9167 163° South  Level Estimated
Thu 01:01:00 AM -4.0454 20.9545 163° South  Level Estimated
Thu 01:02:00 AM -4.1701 20.9923 163° South  Level Estimated
Thu 01:03:00 AM -4.2949 21.0302 163° South  Level Estimated
Thu 01:04:00 AM -4.4196 21.0680 163° South  Level Estimated
Thu 01:05:00 AM -4.5443 21.1059 163° South  Level Estimated
Thu 01:06:00 AM -4.6690 21.1438 163° South  Level Estimated
Thu 01:07:00 AM -4.7937 21.1817 163° South  Level Estimated
Thu 01:08:00 AM -4.9185 21.2196 163° South  Level Estimated
Thu 01:09:00 AM -5.0432 21.2575 163° South  Level Estimated
Thu 01:10:00 AM -5.1679 21.2955 163° South  Level Estimated
Thu 01:11:00 AM -5.2926 21.3334 163° South  Level Estimated
Thu 01:12:00 AM -5.4173 21.3714 163° South  Level Estimated
Thu 01:13:00 AM -5.5420 21.4094 163° South  Level Estimated
Thu 01:14:00 AM -5.6667 21.4474 163° South  Level Estimated
Thu 01:15:00 AM -5.7914 21.4854 163° South  Level Estimated
Thu 01:16:00 AM -5.9161 21.5234 163° South  Level Estimated
Thu 01:17:00 AM -6.0408 21.5615 163° South  Level Estimated
Thu 01:18:00 AM -6.1655 21.5995 163° South  Level Estimated
Thu 01:19:00 AM -6.2902 21.6376 163° South  Level Estimated
Thu 01:20:00 AM -6.4149 21.6757 163° South  Level Estimated
Thu 01:21:00 AM -6.5395 21.7138 163° South  Level Estimated
Thu 01:22:00 AM -6.6642 21.7520 163° South  Level Estimated
Thu 01:23:00 AM -6.7889 21.7901 163° South  Level Estimated
Thu 01:24:00 AM -6.9136 21.8283 163° South  Level Estimated
Thu 01:25:00 AM -7.0382 21.8665 163° South  Level Estimated
Thu 01:26:00 AM -7.1629 21.9047 163° South  Level Estimated
Thu 01:27:00 AM -7.2876 21.9430 163° South  Level Estimated
Thu 01:28:00 AM -7.4123 21.9812 163° South  Level Estimated
Thu 01:29:00 AM -7.5369 22.0195 163° South  Level Estimated
Thu 01:30:00 AM -7.6616 22.0578 163° South  Level Estimated
Thu 01:31:00 AM -7.7862 22.0962 163° South  Level Estimated
Thu 01:32:00 AM -7.9109 22.1345 163° South  Level Estimated
Thu 01:33:00 AM -8.0355 22.1729 163° South  Level Estimated
Thu 01:34:00 AM -8.1602 22.2113 163° South  Level Estimated
Thu 01:35:00 AM -8.2848 22.2497 163° South  Level Estimated
Thu 01:36:00 AM -8.4094 22.2882 163° South  Level Estimated
Thu 01:37:00 AM -8.5341 22.3266 163° South  Level Estimated
Thu 01:38:00 AM -8.6587 22.3651 163° South  Level Estimated
Thu 01:39:00 AM -8.7833 22.4037 163° South  Level Estimated
Thu 01:40:00 AM -8.9079 22.4422 163° South  Level Estimated
Thu 01:41:00 AM -9.0325 22.4808 163° South  Level Estimated
Thu 01:42:00 AM -9.1572 22.5194 163° South  Level Estimated
Thu 01:43:00 AM -9.2818 22.5580 163° South  Level Estimated
Thu 01:44:00 AM -9.4064 22.5967 163° South  Level Estimated
Thu 01:45:00 AM -9.5310 22.6354 163° South  Level Estimated
Thu 01:46:00 AM -9.6556 22.6741 163° South  Level Estimated
Thu 01:47:00 AM -9.7802 22.7128 163° South  Level Estimated
Thu 01:48:00 AM -9.9047 22.7516 163° South  Level Estimated
Thu 01:49:00 AM -10.0293 22.7904 163° South  Level Estimated
Thu 01:50:00 AM -10.1539 22.8292 163° South  Level Estimated
Thu 01:51:00 AM -10.2785 22.8681 163° South  Level Estimated
Thu 01:52:00 AM -10.4030 22.9070 163° South  Level Estimated
Thu 01:53:00 AM -10.5276 22.9459 163° South  Level Estimated
Thu 01:54:00 AM -10.6522 22.9848 163° South  Level Estimated
Thu 01:55:00 AM -10.7767 23.0238 163° South  Level Estimated
Thu 01:56:00 AM -10.9013 23.0629 163° South  Level Estimated
Thu 01:57:00 AM -11.0258 23.1019 163° South  Level Estimated
Thu 01:58:00 AM -11.1503 23.1410 163° South  Level Estimated
Thu 01:59:00 AM -11.2749 23.1801 163° South  Level Estimated
Thu 02:00:00 AM -11.3994 23.2192 163° South  Level Estimated
Thu 02:01:00 AM -11.5239 23.2584 163° South  Level Estimated
Thu 02:02:00 AM -11.6484 23.2977 163° South  Level Estimated
Thu 02:03:00 AM -11.7730 23.3369 163° South  Level Estimated
Thu 02:04:00 AM -11.8975 23.3762 163° South  Level Estimated
Thu 02:05:00 AM -12.0220 23.4155 163° South  Level Estimated
Thu 02:06:00 AM -12.1465 23.4549 163° South  Level Estimated
Thu 02:07:00 AM -12.2710 23.4943 163° South  Level Estimated
Thu 02:08:00 AM -12.3954 23.5337 163° South  Level Estimated
Thu 02:09:00 AM -12.5199 23.5732 163° South  Level Estimated
Thu 02:10:00 AM -12.6444 23.6127 163° South  Level Estimated
Thu 02:11:00 AM -12.7689 23.6523 163° South  Level Estimated
Thu 02:12:00 AM -12.8933 23.6919 163° South  Level Estimated
Thu 02:13:00 AM -13.0178 23.7315 163° South  Level Estimated
Thu 02:14:00 AM -13.1422 23.7712 163° South  Level Estimated
Thu 02:15:00 AM -13.2667 23.8109 163° South  Level Estimated
Thu 02:16:00 AM -13.3911 23.8506 163° South  Level Estimated
Thu 02:17:00 AM -13.5155 23.8904 163° South  Level Estimated
Thu 02:18:00 AM -13.6400 23.9303 163° South  Level Estimated
Thu 02:19:00 AM -13.7644 23.9701 163° South  Level Estimated
Thu 02:20:00 AM -13.8888 24.0100 163° South  Level Estimated
Thu 02:21:00 AM -14.0132 24.0500 163° South  Level Estimated
Thu 02:22:00 AM -14.1376 24.0900 163° South  Level Estimated
Thu 02:23:00 AM -14.2620 24.1301 163° South  Level Estimated
Thu 02:24:00 AM -14.3864 24.1702 163° South  Level Estimated
Thu 02:25:00 AM -14.5108 24.2103 163° South  Level Estimated
Thu 02:26:00 AM -14.6351 24.2505 163° South  Level Estimated
Thu 02:27:00 AM -14.7595 24.2907 163° South  Level Estimated
Thu 02:28:00 AM -14.8839 24.3310 163° South  Level Estimated
Thu 02:29:00 AM -15.0082 24.3713 163° South  Level Estimated
Thu 02:30:00 AM -15.1326 24.4117 163° South  Level Estimated
Thu 02:31:00 AM -15.2569 24.4521 163° South  Level Estimated
Thu 02:32:00 AM -15.3812 24.4925 163° South  Level Estimated
Thu 02:33:00 AM -15.5056 24.5330 163° South  Level Estimated
Thu 02:34:00 AM -15.6299 24.5736 163° South  Level Estimated
Thu 02:35:00 AM -15.7542 24.6142 163° South  Level Estimated
Thu 02:36:00 AM -15.8785 24.6549 163° South  Level Estimated
Thu 02:37:00 AM -16.0028 24.6956 163° South  Level Estimated
Thu 02:38:00 AM -16.1271 24.7363 163° South  Level Estimated
Thu 02:39:00 AM -16.2513 24.7771 163° South  Level Estimated
Thu 02:40:00 AM -16.3756 24.8180 162° South  Level Estimated
Thu 02:41:00 AM -16.4999 24.8589 162° South  Level Estimated
Thu 02:42:00 AM -16.6241 24.8999 162° South  Level Estimated
Thu 02:43:00 AM -16.7484 24.9409 162° South  Level Estimated
Thu 02:44:00 AM -16.8726 24.9820 162° South  Level Estimated
Thu 02:45:00 AM -16.9968 25.0231 162° South  Level Estimated
Thu 02:46:00 AM -17.1211 25.0643 162° South  Level Estimated
Thu 02:47:00 AM -17.2453 25.1055 162° South  Level Estimated
Thu 02:48:00 AM -17.3695 25.1468 162° South  Level Estimated
Thu 02:49:00 AM -17.4937 25.1882 162° South  Level Estimated
Thu 02:50:00 AM -17.6179 25.2296 162° South  Level Estimated
Thu 02:51:00 AM -17.7420 25.2710 162° South  Level Estimated
Thu 02:52:00 AM -17.8662 25.3126 162° South  Level Estimated
Thu 02:53:00 AM -17.9904 25.3541 162° South  Level Estimated
Thu 02:54:00 AM -18.1145 25.3958 162° South  Level Estimated
Thu 02:55:00 AM -18.2387 25.4375 162° South  Level Estimated
Thu 02:56:00 AM -18.3628 25.4792 162° South  Level Estimated
Thu 02:57:00 AM -18.4869 25.5211 162° South  Level Estimated
Thu 02:58:00 AM -18.6110 25.5629 162° South  Level Estimated
Thu 02:59:00 AM -18.7351 25.6049 162° South  Level Estimated
Thu 03:00:00 AM -18.8592 25.6469 162° South  Level Estimated
Thu 03:01:00 AM -18.9833 25.6889 162° South  Level Estimated
Thu 03:02:00 AM -19.1074 25.7311 162° South  Level Estimated
Thu 03:03:00 AM -19.2315 25.7733 162° South  Level Estimated
Thu 03:04:00 AM -19.3556 25.8155 162° South  Level Estimated
Thu 03:05:00 AM -19.4796 25.8578 162° South  Level Estimated
Thu 03:06:00 AM -19.6036 25.9002 162° South  Level Estimated
Thu 03:07:00 AM -19.7277 25.9426 162° South  Level Estimated
Thu 03:08:00 AM -19.8517 25.9851 162° South  Level Estimated
Thu 03:09:00 AM -19.9757 26.0277 162° South  Level Estimated
Thu 03:09:11 AM -23.1580 26.1900 162° South 507 583 39,000  Level FlightAware
Thu 03:09:56 AM -23.2550 26.2350 157° South 507 583 39,000  Level FlightAware
Thu 03:10:00 AM -20.0997 26.0704 162° South  Level Estimated
Thu 03:10:36 AM -23.3410 26.2750 157° South 506 582 39,000  Level FlightAware
Thu 03:11:36 AM -23.4700 26.3350 157° South 503 579 39,000  Level FlightAware
Thu 03:12:11 AM -23.5430 26.3690 157° South 505 581 39,000  Level FlightAware
Thu 03:12:56 AM -23.6370 26.4130 157° South 505 581 39,000  Level FlightAware
Thu 03:13:36 AM -23.7260 26.4550 157° South 504 580 39,000  Level FlightAware
Thu 03:14:21 AM -23.8190 26.4980 157° South 503 579 39,000  Level FlightAware
Thu 03:15:56 AM -24.0250 26.5950 157° South 504 580 39,000  Level FlightAware
Thu 03:16:51 AM -24.1430 26.6500 157° South 503 579 39,000 -180 Level FlightAware
Thu 03:17:36 AM -24.2410 26.6980 156° South 509 586 38,700 -1,412 Descending FlightAware
Thu 03:18:16 AM -24.3200 26.7550 147° Southeast 522 601 37,000 -2,541 Descending FlightAware
Thu 03:19:01 AM -24.4100 26.8200 147° Southeast 524 603 35,100 -2,372 Descending FlightAware
Thu 03:19:42 AM -24.4900 26.8780 147° Southeast 518 596 33,600 -2,753 Descending FlightAware
Thu 03:20:26 AM -24.5840 26.9460 147° Southeast 529 609 31,200 -2,714 Descending FlightAware
Thu 03:21:06 AM -24.6650 27.0050 147° Southeast 521 600 29,800 -1,950 Descending FlightAware
Thu 03:21:46 AM -24.7440 27.0620 147° Southeast 511 588 28,600 -1,976 Descending FlightAware
Thu 03:22:31 AM -24.8320 27.1270 146° Southeast 502 578 27,000 -1,906 Descending FlightAware
Thu 03:23:11 AM -24.9090 27.1830 147° Southeast 492 566 25,900 -1,624 Descending FlightAware
Thu 03:23:56 AM -24.9920 27.2440 146° Southeast 477 549 24,700 -1,553 Descending FlightAware
Thu 03:24:36 AM -25.0640 27.2970 146° Southeast 464 534 23,700 -1,412 Descending FlightAware
Thu 03:25:21 AM -25.1450 27.3560 147° Southeast 459 528 22,700 -1,129 Descending FlightAware
Thu 03:26:01 AM -25.2140 27.4070 146° Southeast 460 529 22,100 -975 Descending FlightAware
Thu 03:26:41 AM -25.2860 27.4610 146° Southeast 460 529 21,400 -988 Descending FlightAware
Thu 03:27:26 AM -25.3640 27.5180 147° Southeast 459 528 20,700 -988 Descending FlightAware
Thu 03:28:06 AM -25.4350 27.5710 146° Southeast 459 528 20,000 -1,037 Descending FlightAware
Thu 03:28:47 AM -25.5060 27.6230 147° Southeast 459 528 19,300 -988 Descending FlightAware
Thu 03:29:31 AM -25.5860 27.6820 146° Southeast 453 521 18,600 -957 Descending FlightAware
Thu 03:29:56 AM -25.6270 27.7130 146° Southeast 448 516 18,200 -1,006 Descending FlightAware
Thu 03:32:00 AM -25.8238 27.9170 137° Southeast  Level Estimated
Thu 03:32:18 AM -25.8580 27.8860 137° Southeast 423 487 15,800  Level FlightAware
Thu 03:33:06 AM -25.9320 27.9400 147° Southeast 389 448 15,200 -552 Descending FlightAware
Thu 03:33:45 AM -25.9900 27.9840 146° Southeast 358 412 15,000 -424 Descending FlightAware
Thu 03:34:31 AM -26.0500 28.0290 146° Southeast 334 384 14,600 -698 Descending FlightAware
Thu 03:35:11 AM -26.1000 28.0670 146° Southeast 321 369 14,000 -1,125 Descending FlightAware
Thu 03:35:51 AM -26.1500 28.0920 156° South 302 348 13,100 -1,448 Descending FlightAware
Thu 03:36:09 AM -26.1770 28.0880 188° South 292 336 12,600 -1,472 Descending FlightAware
Thu 03:36:44 AM -26.2230 28.0710 198° South 293 337 11,800 -1,171 Descending FlightAware
Thu 03:37:31 AM -26.2830 28.0510 197° South 284 327 11,000 -1,067 Descending FlightAware
Thu 03:38:14 AM -26.3370 28.0390 191° South 291 335 10,200 -1,200 Descending FlightAware
Thu 03:38:26 AM -26.3550 28.0440 166° South 298 343 9,900 -1,333 Descending FlightAware
Thu 03:38:41 AM -26.3680 28.0520 151° Southeast 307 353 9,600 -1,286 Descending FlightAware
Thu 03:38:54 AM -26.3830 28.0710 131° Southeast 316 364 9,300 -1,286 Descending FlightAware
Thu 03:39:09 AM -26.3920 28.0940 114° Southeast 317 365 9,000 -857 Descending FlightAware
Thu 03:39:36 AM -26.3960 28.1370 96° East 301 346 8,700 -409 Descending FlightAware
Thu 03:39:53 AM -26.3880 28.1630 71° East 282 325 8,700 -200 Level FlightAware
Thu 03:40:06 AM -26.3790 28.1760 52° Northeast 266 306 8,600 -558 Descending FlightAware
Thu 03:40:36 AM -26.3500 28.1940 29° Northeast 237 273 8,300 -655 Descending FlightAware
Thu 03:41:01 AM -26.3220 28.2010 13° North 226 260 8,000 -577 Descending FlightAware
Thu 03:41:28 AM -26.2970 28.2080 14° North 211 243 7,800 -842 Descending FlightAware
Thu 03:41:58 AM -26.2670 28.2160 13° North 214 246 7,200 -1,116 Descending FlightAware
Thu 03:42:11 AM -26.2560 28.2200 18° North 207 238 7,000 -933 Descending FlightAware
Thu 03:42:43 AM -26.2280 28.2280 14° North 184 212 6,500 -947 Descending FlightAware
Thu 03:43:08 AM -26.2070 28.2350 17° North 167 192 6,100 -840 Descending FlightAware
Thu 03:43:33 AM -26.1900 28.2400 15° North 149 171 5,800 -818 Descending FlightAware
Thu 03:43:52 AM -26.1770 28.2440 15° North 145 167 5,500 -818 Descending FlightAware
Thu 03:44:17 AM -26.1610 28.2490 16° North 149 171 5,200 -720 Descending FlightAware
Thu 03:44:47 AM -26.1450 28.2540 16° North 58 67 -10,400 Descending FlightAware
Thu 03:45:27 AM -26.1390 28.2540 360° North 24 28  Level FlightAware
Thu 03:48:00 AM -26.1392 28.2460 269° West  Level Estimated
Thu 03:49:00 AM -26.1392 28.2460 North  Level Estimated
Thu 03:50:00 AM -26.1392 28.2460 North  Level Estimated
Thu 03:51:00 AM -26.1392 28.2460 North  Level Estimated
Thu 03:52:00 AM -26.1392 28.2460 North  Level Estimated
Thu 03:53:00 AM -26.1392 28.2460 North  Level Estimated
Thu 03:54:00 AM -26.1392 28.2460 North  Level Estimated
Thu 03:55:00 AM -26.1392 28.2460 North  Level Estimated
Thu 03:56:00 AM -26.1392 28.2460 North  Level Estimated
Thu 03:57:00 AM -26.1392 28.2460 North  Level Estimated
Thu 03:58:00 AM -26.1392 28.2460 North  Level Estimated
Thu 03:59:00 AM -26.1392 28.2460 North  Level Estimated

Login

Don't have an account? Register now (free) for customized features, flight alerts, and more!